Time;durP1;ratioP1;P1;durP2;ratioP2;P2;SDS_P1;SDS_P2;PMS_P1;PMS_P2;Temp;Humidity;BMP_temperature;BMP_pressure;BME280_temperature;BME280_humidity;BME280_pressure;Samples;Min_cycle;Max_cycle;Signal;HPM_P1;HPM_P2
2021/03/03 00:01:04;;;;;;;41.30;24.83;;;2.90;99.90;;;;;;4950261;28;20290;-72
2021/03/03 00:03:30;;;;;;;40.27;23.23;;;2.80;99.90;;;;;;4941083;29;20292;-72
2021/03/03 00:05:56;;;;;;;41.53;24.40;;;2.80;99.90;;;;;;4944408;29;20205;-71
2021/03/03 00:08:23;;;;;;;43.27;23.93;;;2.80;99.90;;;;;;4939958;29;20305;-71
2021/03/03 00:10:50;;;;;;;39.77;22.83;;;2.70;99.90;;;;;;4943442;29;20245;-71
2021/03/03 00:13:16;;;;;;;38.77;24.43;;;2.80;99.90;;;;;;4948386;29;20267;-72
2021/03/03 00:15:44;;;;;;;41.30;25.23;;;2.70;99.90;;;;;;4950297;28;20210;-71
2021/03/03 00:18:11;;;;;;;36.63;23.40;;;2.70;99.90;;;;;;4946632;28;20216;-71
2021/03/03 00:20:37;;;;;;;42.37;24.90;;;2.80;99.90;;;;;;4945590;28;20332;-71
2021/03/03 00:23:03;;;;;;;39.23;23.93;;;2.80;99.90;;;;;;4954423;28;20201;-71
2021/03/03 00:25:30;;;;;;;42.83;24.63;;;2.80;99.90;;;;;;4953234;28;20288;-71
2021/03/03 00:27:58;;;;;;;42.03;24.00;;;2.80;99.90;;;;;;4954735;28;20217;-71
2021/03/03 00:30:25;;;;;;;37.70;23.77;;;2.80;99.90;;;;;;4946624;28;20256;-71
2021/03/03 00:32:52;;;;;;;40.10;23.97;;;2.90;99.90;;;;;;4940871;29;20644;-71
2021/03/03 00:35:18;;;;;;;40.60;24.73;;;2.90;99.90;;;;;;4940214;29;20571;-71
2021/03/03 00:37:44;;;;;;;43.60;25.87;;;2.90;99.90;;;;;;4944705;29;20257;-73
2021/03/03 00:40:12;;;;;;;39.33;24.40;;;2.80;99.90;;;;;;4937462;29;20294;-71
2021/03/03 00:42:38;;;;;;;37.60;22.90;;;2.80;99.90;;;;;;4937388;29;20673;-71
2021/03/03 00:45:07;;;;;;;40.60;24.83;;;2.90;99.90;;;;;;4945191;29;20214;-70
2021/03/03 00:47:34;;;;;;;42.97;25.67;;;2.90;99.90;;;;;;4941005;28;20252;-71
2021/03/03 00:50:01;;;;;;;41.63;25.03;;;2.90;99.90;;;;;;4944811;28;20293;-71
2021/03/03 00:52:27;;;;;;;39.43;24.63;;;2.90;99.90;;;;;;4941656;29;20226;-70
2021/03/03 00:54:54;;;;;;;43.77;24.57;;;2.90;99.90;;;;;;4943554;29;20206;-71
2021/03/03 00:57:20;;;;;;;45.47;26.83;;;2.90;99.90;;;;;;4950673;28;20315;-72
2021/03/03 00:59:47;;;;;;;45.03;26.37;;;2.90;99.90;;;;;;4937870;28;20714;-71
2021/03/03 01:02:14;;;;;;;43.43;25.80;;;2.90;99.90;;;;;;4936769;28;20694;-71
2021/03/03 01:04:40;;;;;;;44.10;25.30;;;2.90;99.90;;;;;;4943737;29;20217;-71
2021/03/03 01:07:07;;;;;;;46.03;25.77;;;2.90;99.90;;;;;;4947207;28;20305;-72
2021/03/03 01:09:33;;;;;;;41.63;24.37;;;3.00;99.90;;;;;;4944523;28;20583;-71
2021/03/03 01:12:00;;;;;;;42.23;25.33;;;3.00;99.90;;;;;;4949318;28;20206;-71
2021/03/03 01:14:26;;;;;;;46.00;26.13;;;3.10;99.90;;;;;;4939707;29;20681;-72
2021/03/03 01:16:53;;;;;;;44.43;24.83;;;3.10;99.90;;;;;;4940219;28;20706;-72
2021/03/03 01:19:23;;;;;;;42.27;26.27;;;3.10;99.90;;;;;;4948063;28;20225;-71
2021/03/03 01:21:50;;;;;;;44.27;24.73;;;3.00;99.90;;;;;;4937926;28;20249;-71
2021/03/03 01:24:16;;;;;;;45.37;25.63;;;3.00;99.90;;;;;;4940503;28;20289;-71
2021/03/03 01:26:43;;;;;;;47.80;26.47;;;3.00;99.90;;;;;;4954037;28;20301;-70
2021/03/03 01:29:10;;;;;;;46.23;25.67;;;3.10;99.90;;;;;;4945311;29;20313;-70
2021/03/03 01:31:36;;;;;;;45.23;25.60;;;3.10;99.90;;;;;;4940272;28;20305;-72
2021/03/03 01:34:03;;;;;;;43.93;26.00;;;3.10;99.90;;;;;;4941855;29;20209;-70
2021/03/03 01:36:31;;;;;;;46.60;25.37;;;3.10;99.90;;;;;;4946047;28;20236;-70
2021/03/03 01:38:57;;;;;;;46.13;26.33;;;3.20;99.90;;;;;;4941914;29;20216;-71
2021/03/03 01:41:25;;;;;;;52.77;28.57;;;3.20;99.90;;;;;;4937255;29;20296;-71
2021/03/03 01:43:51;;;;;;;52.23;27.97;;;3.20;99.90;;;;;;4942411;29;20210;-71
2021/03/03 01:46:18;;;;;;;52.90;27.53;;;3.30;99.90;;;;;;4946584;29;20232;-71
2021/03/03 01:48:44;;;;;;;51.43;28.07;;;3.30;99.90;;;;;;4944298;28;20685;-71
2021/03/03 01:51:11;;;;;;;52.53;28.50;;;3.30;99.90;;;;;;4953618;28;20201;-71
2021/03/03 01:53:39;;;;;;;51.80;26.70;;;3.40;99.90;;;;;;4949484;28;20293;-71
2021/03/03 01:56:06;;;;;;;53.57;28.80;;;3.40;99.90;;;;;;4938792;28;20754;-71
2021/03/03 01:58:33;;;;;;;55.93;29.20;;;3.30;99.90;;;;;;4936667;29;20308;-72
2021/03/03 02:01:00;;;;;;;52.50;29.20;;;3.30;99.90;;;;;;4936465;29;20293;-69
2021/03/03 02:03:26;;;;;;;57.13;30.50;;;3.20;99.90;;;;;;4942135;29;20210;-71
2021/03/03 02:05:57;;;;;;;51.30;27.67;;;3.20;99.90;;;;;;4944035;29;20665;-71
2021/03/03 02:08:30;;;;;;;53.97;29.93;;;3.10;99.90;;;;;;4946195;28;20263;-70
2021/03/03 02:11:04;;;;;;;56.17;28.70;;;3.10;99.90;;;;;;4950985;28;20242;-71
2021/03/03 02:13:33;;;;;;;56.03;29.70;;;3.00;99.90;;;;;;4948720;29;20313;-71
2021/03/03 02:16:04;;;;;;;58.57;29.80;;;2.90;99.90;;;;;;4939963;28;20288;-71
2021/03/03 02:18:33;;;;;;;59.93;29.77;;;2.90;99.90;;;;;;4950784;28;20296;-71
2021/03/03 02:21:04;;;;;;;55.53;30.87;;;2.90;99.90;;;;;;4948351;28;20324;-71
2021/03/03 02:23:44;;;;;;;57.97;29.03;;;2.90;99.90;;;;;;4951697;29;20225;-72
2021/03/03 02:26:14;;;;;;;57.67;28.90;;;2.90;99.90;;;;;;4951660;29;20765;-72
2021/03/03 02:28:42;;;;;;;53.40;27.67;;;2.90;99.90;;;;;;4948986;28;20205;-73
2021/03/03 02:31:09;;;;;;;50.03;27.30;;;2.90;99.90;;;;;;4945501;28;20611;-73
2021/03/03 02:33:37;;;;;;;45.93;25.73;;;2.90;99.90;;;;;;4949366;29;20216;-72
2021/03/03 02:36:04;;;;;;;44.00;24.33;;;2.90;99.90;;;;;;4950546;28;20292;-71
2021/03/03 02:38:31;;;;;;;43.50;23.47;;;2.80;99.90;;;;;;4949601;29;20747;-72
2021/03/03 02:40:58;;;;;;;43.40;23.67;;;2.80;99.90;;;;;;4950934;29;20689;-71
2021/03/03 02:43:27;;;;;;;45.63;24.30;;;2.80;99.90;;;;;;4949871;28;20667;-73
2021/03/03 02:45:54;;;;;;;44.17;25.83;;;2.70;99.90;;;;;;4950782;28;20233;-71
2021/03/03 02:48:21;;;;;;;47.20;26.67;;;2.60;99.90;;;;;;4952764;28;20221;-72
2021/03/03 02:50:47;;;;;;;48.03;26.70;;;2.60;99.90;;;;;;4954333;28;20214;-72
2021/03/03 02:53:13;;;;;;;47.27;26.83;;;2.50;99.90;;;;;;4950769;28;20205;-72
2021/03/03 02:55:40;;;;;;;48.90;27.17;;;2.50;99.90;;;;;;4955121;28;20287;-72
2021/03/03 02:58:07;;;;;;;48.90;27.23;;;2.40;99.90;;;;;;4954615;28;20272;-72
2021/03/03 03:00:37;;;;;;;46.67;26.10;;;2.40;99.90;;;;;;4953795;28;20210;-73
2021/03/03 03:03:12;;;;;;;47.07;26.13;;;2.50;99.90;;;;;;4951061;28;20292;-73
2021/03/03 03:05:42;;;;;;;45.87;25.23;;;2.50;99.90;;;;;;4950828;29;20216;-73
2021/03/03 03:08:13;;;;;;;43.73;25.37;;;2.60;99.90;;;;;;4954205;28;20283;-72
2021/03/03 03:10:41;;;;;;;51.17;25.67;;;2.60;99.90;;;;;;4951716;29;20709;-71
2021/03/03 03:13:10;;;;;;;47.37;25.03;;;2.50;99.90;;;;;;4950794;28;20240;-73
2021/03/03 03:15:42;;;;;;;46.23;24.90;;;2.60;99.90;;;;;;4948460;29;20228;-72
2021/03/03 03:18:12;;;;;;;42.80;24.23;;;2.50;99.90;;;;;;4948049;28;20701;-72
2021/03/03 03:20:40;;;;;;;48.30;24.97;;;2.50;99.90;;;;;;4948143;28;20245;-72
2021/03/03 03:23:07;;;;;;;45.30;24.47;;;2.50;99.90;;;;;;4949873;28;20626;-72
2021/03/03 03:25:35;;;;;;;44.13;24.30;;;2.50;99.90;;;;;;4951658;28;20209;-71
2021/03/03 03:28:02;;;;;;;45.83;23.73;;;2.50;99.90;;;;;;4951976;28;20300;-72
2021/03/03 03:30:30;;;;;;;41.40;23.07;;;2.60;99.90;;;;;;4950728;28;20307;-72
2021/03/03 03:32:58;;;;;;;43.07;24.10;;;2.70;99.90;;;;;;4949087;29;20650;-72
2021/03/03 03:35:28;;;;;;;44.97;24.73;;;2.50;99.90;;;;;;4948219;28;20595;-72
2021/03/03 03:37:55;;;;;;;47.67;24.37;;;2.60;99.90;;;;;;4954865;29;20316;-72
2021/03/03 03:40:23;;;;;;;45.57;26.37;;;2.70;99.90;;;;;;4951098;28;20601;-73
2021/03/03 03:42:54;;;;;;;46.23;24.77;;;2.70;99.90;;;;;;4953886;29;20253;-72
2021/03/03 03:45:21;;;;;;;43.93;24.67;;;2.70;99.90;;;;;;4953672;28;20201;-72
2021/03/03 03:47:48;;;;;;;46.80;25.70;;;2.70;99.90;;;;;;4951297;29;20223;-72
2021/03/03 03:50:20;;;;;;;44.27;24.53;;;2.70;99.90;;;;;;4948288;28;20783;-72
2021/03/03 03:52:52;;;;;;;44.50;23.90;;;2.70;99.90;;;;;;4951718;29;20216;-72
2021/03/03 03:55:19;;;;;;;40.77;24.27;;;2.70;99.90;;;;;;4949087;29;20245;-72
2021/03/03 03:57:50;;;;;;;48.50;24.30;;;2.60;99.90;;;;;;4952670;28;20229;-72
2021/03/03 04:00:21;;;;;;;46.00;25.13;;;2.70;99.90;;;;;;4950576;28;20638;-72
2021/03/03 04:02:48;;;;;;;46.30;23.37;;;2.70;99.90;;;;;;4948650;28;20206;-72
2021/03/03 04:05:17;;;;;;;42.63;25.80;;;2.70;99.90;;;;;;4953895;28;20667;-72
2021/03/03 04:07:45;;;;;;;40.73;23.43;;;2.70;99.90;;;;;;4946250;28;20345;-72
2021/03/03 04:10:14;;;;;;;44.90;25.33;;;2.70;99.90;;;;;;4952406;29;20448;-73
2021/03/03 04:12:41;;;;;;;47.10;25.50;;;2.70;99.90;;;;;;4949326;29;20240;-72
2021/03/03 04:15:09;;;;;;;46.03;24.70;;;2.80;99.90;;;;;;4950130;29;20236;-72
2021/03/03 04:17:38;;;;;;;48.33;25.97;;;2.80;99.90;;;;;;4953919;28;20222;-72
2021/03/03 04:20:07;;;;;;;44.53;24.57;;;2.80;99.90;;;;;;4951771;28;20260;-73
2021/03/03 04:22:35;;;;;;;43.07;25.70;;;2.80;99.90;;;;;;4952006;28;20326;-72
2021/03/03 04:25:03;;;;;;;49.77;27.23;;;2.80;99.90;;;;;;4950128;28;20296;-72
2021/03/03 04:27:30;;;;;;;48.13;26.20;;;2.70;99.90;;;;;;4952959;28;20692;-73
2021/03/03 04:29:56;;;;;;;48.57;26.10;;;2.70;99.90;;;;;;4951924;28;20221;-72
2021/03/03 04:32:23;;;;;;;54.60;29.10;;;2.70;99.90;;;;;;4954439;28;20698;-73
2021/03/03 04:34:49;;;;;;;55.83;27.70;;;2.70;99.90;;;;;;4952646;28;20224;-73
2021/03/03 04:37:16;;;;;;;53.40;28.17;;;2.70;99.90;;;;;;4948202;28;20233;-73
2021/03/03 04:39:43;;;;;;;56.97;28.67;;;2.70;99.90;;;;;;4948696;28;20252;-72
2021/03/03 04:42:11;;;;;;;54.80;28.67;;;2.70;99.90;;;;;;4949683;29;20300;-72
2021/03/03 04:44:39;;;;;;;59.13;29.27;;;2.70;99.90;;;;;;4950826;28;20337;-72
2021/03/03 04:47:08;;;;;;;54.90;28.47;;;2.70;99.90;;;;;;4949251;29;20193;-72
2021/03/03 04:49:35;;;;;;;53.63;26.30;;;2.70;99.90;;;;;;4944494;29;20609;-72
2021/03/03 04:52:01;;;;;;;60.50;28.57;;;2.80;99.90;;;;;;4945999;29;20636;-73
2021/03/03 04:54:27;;;;;;;55.77;27.77;;;2.70;99.90;;;;;;4955260;28;20217;-71
2021/03/03 04:56:55;;;;;;;56.13;27.30;;;2.60;99.90;;;;;;4947292;28;20685;-72
2021/03/03 04:59:21;;;;;;;52.80;26.27;;;2.60;99.90;;;;;;4947669;28;20208;-72
2021/03/03 05:01:47;;;;;;;55.87;26.97;;;2.50;99.90;;;;;;4952242;28;20236;-73
2021/03/03 05:04:14;;;;;;;51.53;26.63;;;2.50;99.90;;;;;;4952423;28;20222;-74
2021/03/03 05:06:40;;;;;;;49.30;25.27;;;2.40;99.90;;;;;;4950626;29;20345;-72
2021/03/03 05:09:07;;;;;;;52.03;27.10;;;2.40;99.90;;;;;;4951145;28;20232;-71
2021/03/03 05:11:33;;;;;;;57.13;27.83;;;2.30;99.90;;;;;;4950912;28;20201;-73
2021/03/03 05:14:01;;;;;;;57.30;29.47;;;2.20;99.90;;;;;;4950622;28;20604;-72
2021/03/03 05:16:27;;;;;;;54.77;27.40;;;2.20;99.90;;;;;;4950295;29;20296;-72
2021/03/03 05:18:53;;;;;;;64.63;29.00;;;2.20;99.90;;;;;;4950549;29;20209;-73
2021/03/03 05:21:20;;;;;;;50.97;25.33;;;2.20;99.90;;;;;;4945066;28;20237;-73
2021/03/03 05:23:47;;;;;;;52.43;25.43;;;2.20;99.90;;;;;;4949896;29;20226;-71
2021/03/03 05:26:14;;;;;;;51.47;26.47;;;2.20;99.90;;;;;;4945833;28;20229;-71
2021/03/03 05:28:44;;;;;;;60.77;27.37;;;2.10;99.90;;;;;;4952975;28;20217;-72
2021/03/03 05:31:12;;;;;;;58.90;26.93;;;2.00;99.90;;;;;;4948562;28;20209;-72
2021/03/03 05:33:38;;;;;;;60.60;27.57;;;2.10;99.90;;;;;;4950892;29;20626;-71
2021/03/03 05:36:07;;;;;;;58.47;27.33;;;2.10;99.90;;;;;;4952978;28;20718;-70
2021/03/03 05:38:34;;;;;;;59.40;27.37;;;2.00;99.90;;;;;;4950290;28;20759;-74
2021/03/03 05:41:02;;;;;;;61.93;28.90;;;2.00;99.90;;;;;;4948509;28;20574;-75
2021/03/03 05:43:31;;;;;;;61.63;28.47;;;2.00;99.90;;;;;;4948415;28;20944;-75
2021/03/03 05:46:00;;;;;;;54.43;26.23;;;2.00;99.90;;;;;;4947190;29;20694;-74
2021/03/03 05:48:32;;;;;;;58.50;26.73;;;2.10;99.90;;;;;;4947851;29;20212;-75
2021/03/03 05:51:01;;;;;;;60.03;28.37;;;2.10;99.90;;;;;;4947047;29;20213;-75
2021/03/03 05:53:29;;;;;;;63.53;28.30;;;2.10;99.90;;;;;;4947534;28;20590;-74
2021/03/03 05:55:56;;;;;;;62.43;27.53;;;2.20;99.90;;;;;;4946762;29;20237;-75
2021/03/03 05:58:23;;;;;;;63.73;28.70;;;2.20;99.90;;;;;;4947963;29;20221;-75
2021/03/03 06:00:50;;;;;;;56.53;28.00;;;2.30;99.90;;;;;;4950088;28;20577;-75
2021/03/03 06:03:17;;;;;;;54.10;24.97;;;2.30;99.90;;;;;;4951455;28;20292;-75
2021/03/03 06:05:48;;;;;;;61.30;26.53;;;2.30;99.90;;;;;;4946251;28;20293;-75
2021/03/03 06:08:15;;;;;;;58.50;26.33;;;2.30;99.90;;;;;;4950973;28;20201;-74
2021/03/03 06:10:42;;;;;;;55.37;24.60;;;2.30;99.90;;;;;;4950758;28;20221;-75
2021/03/03 06:13:09;;;;;;;48.10;24.63;;;2.30;99.90;;;;;;4952624;28;20201;-74
2021/03/03 06:15:36;;;;;;;49.27;25.13;;;2.30;99.90;;;;;;4952602;28;20197;-75
2021/03/03 06:18:06;;;;;;;50.20;23.60;;;2.30;99.90;;;;;;4950763;28;20224;-75
2021/03/03 06:20:37;;;;;;;49.10;23.43;;;2.30;99.90;;;;;;4951044;28;20707;-75
2021/03/03 06:23:14;;;;;;;41.50;21.20;;;2.30;99.90;;;;;;4970019;28;20214;-75
2021/03/03 06:25:41;;;;;;;42.03;21.30;;;2.20;99.90;;;;;;4955778;29;20732;-75
2021/03/03 06:28:09;;;;;;;47.10;22.80;;;2.20;99.90;;;;;;4950865;28;20209;-74
2021/03/03 06:30:35;;;;;;;44.20;22.07;;;2.20;99.90;;;;;;4954062;28;20286;-75
2021/03/03 06:33:03;;;;;;;47.00;22.80;;;2.20;99.90;;;;;;4949764;28;20202;-75
2021/03/03 06:35:44;;;;;;;46.67;22.40;;;2.30;99.90;;;;;;4955231;28;20300;-73
2021/03/03 06:38:13;;;;;;;55.53;24.77;;;2.30;99.90;;;;;;4951539;29;20552;-75
2021/03/03 06:40:51;;;;;;;48.03;22.93;;;2.30;99.90;;;;;;4952698;28;20221;-75
2021/03/03 06:43:20;;;;;;;50.30;23.53;;;2.30;99.90;;;;;;4953336;29;20649;-75
2021/03/03 06:45:47;;;;;;;56.20;24.53;;;2.30;99.90;;;;;;4955995;28;20248;-76
2021/03/03 06:48:13;;;;;;;56.87;25.33;;;2.30;99.90;;;;;;4956471;28;20202;-75
2021/03/03 06:50:40;;;;;;;54.93;24.90;;;2.20;99.90;;;;;;4951567;29;20252;-78
2021/03/03 06:53:08;;;;;;;55.83;24.70;;;2.30;99.90;;;;;;4953850;29;20217;-72
2021/03/03 06:55:46;;;;;;;54.67;24.77;;;2.20;99.90;;;;;;4951339;28;20225;-75
2021/03/03 06:58:29;;;;;;;48.50;23.37;;;2.30;99.90;;;;;;4953088;29;20287;-73
2021/03/03 07:00:58;;;;;;;56.27;24.17;;;2.30;99.90;;;;;;4954602;28;20312;-76
2021/03/03 07:03:32;;;;;;;54.93;23.37;;;2.30;99.90;;;;;;4952987;28;20261;-77
2021/03/03 07:05:59;;;;;;;55.40;24.23;;;2.40;99.90;;;;;;4954377;29;20264;-76
2021/03/03 07:08:25;;;;;;;56.93;25.73;;;2.40;99.90;;;;;;4955734;28;20308;-75
2021/03/03 07:10:54;;;;;;;50.40;23.53;;;2.40;99.90;;;;;;4948969;28;20237;-76
2021/03/03 07:13:36;;;;;;;50.80;23.77;;;2.40;99.90;;;;;;4953449;28;20296;-74
2021/03/03 07:16:07;;;;;;;51.17;22.70;;;2.50;99.90;;;;;;4949195;28;20213;-74
2021/03/03 07:18:38;;;;;;;55.57;23.47;;;2.40;99.90;;;;;;4955819;29;20245;-75
2021/03/03 07:21:06;;;;;;;51.63;25.33;;;2.50;99.90;;;;;;4952552;28;20251;-73
2021/03/03 07:23:49;;;;;;;54.17;24.40;;;2.50;99.90;;;;;;4950082;29;20210;-76
2021/03/03 07:26:18;;;;;;;46.27;22.57;;;2.50;99.90;;;;;;4956360;29;20572;-71
2021/03/03 07:28:45;;;;;;;49.57;24.07;;;2.50;99.90;;;;;;4953671;28;20206;-74
2021/03/03 07:31:15;;;;;;;49.17;22.33;;;2.50;99.90;;;;;;4949453;28;20218;-72
2021/03/03 07:33:41;;;;;;;46.97;22.83;;;2.50;99.90;;;;;;4948824;29;20295;-72
2021/03/03 07:36:08;;;;;;;54.27;23.93;;;2.50;99.90;;;;;;4952832;28;20220;-72
2021/03/03 07:38:37;;;;;;;47.37;22.03;;;2.50;99.90;;;;;;4951672;29;20241;-71
2021/03/03 07:41:06;;;;;;;50.67;23.63;;;2.60;99.90;;;;;;4954411;28;20640;-73
2021/03/03 07:43:35;;;;;;;52.57;22.57;;;2.50;99.90;;;;;;4948960;28;20217;-73
2021/03/03 07:46:04;;;;;;;60.63;26.23;;;2.60;99.90;;;;;;4948698;28;20320;-73
2021/03/03 07:48:33;;;;;;;51.90;23.83;;;2.70;99.90;;;;;;4954319;28;20237;-74
2021/03/03 07:51:01;;;;;;;53.47;24.40;;;2.60;99.90;;;;;;4951370;29;20213;-73
2021/03/03 07:53:27;;;;;;;44.07;22.13;;;2.60;99.90;;;;;;4955079;28;20217;-78
2021/03/03 07:55:58;;;;;;;45.00;22.63;;;2.60;99.90;;;;;;4959825;28;20292;-75
2021/03/03 07:58:29;;;;;;;45.53;22.20;;;2.60;99.90;;;;;;4962077;29;20236;-78
2021/03/03 08:00:56;;;;;;;47.83;24.30;;;2.70;99.90;;;;;;4959200;28;20204;-78
2021/03/03 08:03:47;;;;;;;51.93;24.03;;;2.70;99.90;;;;;;4965067;29;20208;-77
2021/03/03 08:06:35;;;;;;;51.17;22.47;;;2.70;99.90;;;;;;4955323;29;20655;-79
2021/03/03 08:09:19;;;;;;;48.83;22.77;;;2.70;99.90;;;;;;4958251;29;20209;-75
2021/03/03 08:12:02;;;;;;;51.67;24.30;;;2.70;99.90;;;;;;4954611;28;20235;-72
2021/03/03 08:14:38;;;;;;;50.83;23.33;;;2.80;99.90;;;;;;4952056;29;20323;-76
2021/03/03 08:17:07;;;;;;;55.47;24.43;;;2.90;99.90;;;;;;4949367;28;20244;-73
2021/03/03 08:19:58;;;;;;;50.53;24.07;;;2.90;99.90;;;;;;4960192;28;20210;-76
2021/03/03 08:22:50;;;;;;;46.90;23.73;;;2.90;99.90;;;;;;4954844;29;20205;-74
2021/03/03 08:25:41;;;;;;;45.20;21.57;;;2.90;99.90;;;;;;4953500;29;20254;-75
2021/03/03 08:28:23;;;;;;;42.37;20.87;;;2.90;99.90;;;;;;4946738;28;20237;-70
2021/03/03 08:31:30;;;;;;;42.80;20.97;;;3.00;99.90;;;;;;4950958;28;20300;-71
2021/03/03 08:33:59;;;;;;;46.10;20.97;;;3.00;99.90;;;;;;4951074;28;20683;-73
2021/03/03 08:37:00;;;;;;;46.03;21.70;;;3.00;99.90;;;;;;4951119;28;20241;-71
2021/03/03 08:39:31;;;;;;;40.93;21.40;;;3.00;99.90;;;;;;4938851;28;20730;-70
2021/03/03 08:41:58;;;;;;;43.87;21.80;;;3.00;99.90;;;;;;4936816;28;20218;-70
2021/03/03 08:44:25;;;;;;;42.33;21.23;;;3.00;99.90;;;;;;4943873;28;20493;-71
2021/03/03 08:46:52;;;;;;;49.80;22.63;;;3.00;99.90;;;;;;4950733;28;20284;-75
2021/03/03 08:49:29;;;;;;;43.57;22.20;;;3.10;99.90;;;;;;4946179;29;20616;-73
2021/03/03 08:52:12;;;;;;;50.40;22.17;;;3.20;99.90;;;;;;4946657;28;20304;-74
2021/03/03 08:54:49;;;;;;;45.83;23.07;;;3.30;99.90;;;;;;4945003;29;20234;-74
2021/03/03 08:57:32;;;;;;;48.80;23.30;;;3.30;99.90;;;;;;4946781;28;20225;-73
2021/03/03 09:00:00;;;;;;;49.53;21.90;;;3.30;99.90;;;;;;4949343;28;20213;-73
2021/03/03 09:02:37;;;;;;;47.07;22.97;;;3.30;99.90;;;;;;4949616;28;20241;-74
2021/03/03 09:05:12;;;;;;;51.33;23.13;;;3.40;99.90;;;;;;4956446;28;20260;-73
2021/03/03 09:07:39;;;;;;;42.87;21.63;;;3.40;99.90;;;;;;4950117;29;20292;-74
2021/03/03 09:10:10;;;;;;;45.97;22.77;;;3.40;99.90;;;;;;4951790;28;20217;-76
2021/03/03 09:12:40;;;;;;;44.17;22.10;;;3.40;99.90;;;;;;4949729;29;20296;-74
2021/03/03 09:15:09;;;;;;;48.30;21.87;;;3.40;99.90;;;;;;4946455;28;20325;-74
2021/03/03 09:17:37;;;;;;;45.17;23.40;;;3.40;99.90;;;;;;4948812;29;20372;-74
2021/03/03 09:20:08;;;;;;;46.50;21.97;;;3.40;99.90;;;;;;4950509;28;20651;-75
2021/03/03 09:22:37;;;;;;;49.73;24.93;;;3.40;99.90;;;;;;4949322;29;20288;-74
2021/03/03 09:25:12;;;;;;;41.53;22.40;;;3.40;99.90;;;;;;4951376;28;20695;-75
2021/03/03 09:27:40;;;;;;;42.13;22.67;;;3.40;99.90;;;;;;4952720;29;20244;-73
2021/03/03 09:30:08;;;;;;;47.80;23.97;;;3.50;99.90;;;;;;4954350;28;20336;-73
2021/03/03 09:32:34;;;;;;;48.70;23.13;;;3.60;99.90;;;;;;4949278;28;20292;-73
2021/03/03 09:35:04;;;;;;;50.53;23.63;;;3.60;99.90;;;;;;4948493;28;20280;-72
2021/03/03 09:37:39;;;;;;;45.53;22.57;;;3.70;99.90;;;;;;4946362;28;20236;-73
2021/03/03 09:40:08;;;;;;;45.70;23.10;;;3.70;99.90;;;;;;4941338;29;20594;-75
2021/03/03 09:42:40;;;;;;;45.83;22.37;;;3.70;99.90;;;;;;4969971;28;20209;-74
2021/03/03 09:45:09;;;;;;;44.33;22.93;;;3.70;99.90;;;;;;4944388;29;20616;-74
2021/03/03 09:47:40;;;;;;;42.23;21.83;;;3.70;99.90;;;;;;4949042;29;20575;-73
2021/03/03 09:50:09;;;;;;;47.60;22.77;;;3.80;99.90;;;;;;4950645;29;20630;-74
2021/03/03 09:52:41;;;;;;;50.80;23.47;;;3.90;99.90;;;;;;4953503;28;20202;-75
2021/03/03 09:55:10;;;;;;;49.20;24.73;;;3.90;99.90;;;;;;4950247;29;20675;-74
2021/03/03 09:57:37;;;;;;;41.30;22.90;;;3.90;99.90;;;;;;4947474;28;20252;-73
2021/03/03 10:00:09;;;;;;;45.07;23.93;;;3.90;99.90;;;;;;4949508;28;20292;-73
2021/03/03 10:02:38;;;;;;;44.47;22.53;;;4.00;99.90;;;;;;4950038;29;20214;-73
2021/03/03 10:05:08;;;;;;;42.03;21.83;;;4.00;99.90;;;;;;4947512;28;20737;-75
2021/03/03 10:07:35;;;;;;;41.67;20.97;;;4.00;99.90;;;;;;4947897;28;20233;-73
2021/03/03 10:10:03;;;;;;;40.20;21.43;;;4.10;99.90;;;;;;4943748;28;20220;-74
2021/03/03 10:12:37;;;;;;;39.43;21.87;;;4.20;99.90;;;;;;4949419;28;20399;-74
2021/03/03 10:15:07;;;;;;;37.70;20.00;;;4.30;99.90;;;;;;4948077;29;20247;-73
2021/03/03 10:17:47;;;;;;;42.53;21.97;;;4.40;99.90;;;;;;4948434;29;20229;-73
2021/03/03 10:20:30;;;;;;;45.77;22.47;;;4.50;99.90;;;;;;4950202;29;20248;-73
2021/03/03 10:22:58;;;;;;;44.53;21.83;;;4.60;99.90;;;;;;4946059;28;20249;-74
2021/03/03 10:25:34;;;;;;;43.63;23.40;;;4.60;99.90;;;;;;4947155;28;20213;-73
2021/03/03 10:28:06;;;;;;;43.47;23.33;;;4.60;99.90;;;;;;4943184;28;20269;-74
2021/03/03 10:30:33;;;;;;;41.47;22.97;;;4.70;99.90;;;;;;4944354;28;20249;-73
2021/03/03 10:33:00;;;;;;;42.03;23.07;;;4.70;99.90;;;;;;4948966;28;20659;-73
2021/03/03 10:35:29;;;;;;;47.60;22.57;;;4.80;99.90;;;;;;4944995;28;20283;-73
2021/03/03 10:38:10;;;;;;;42.63;23.20;;;4.90;99.90;;;;;;4950177;29;20222;-74
2021/03/03 10:40:40;;;;;;;46.30;23.23;;;5.00;99.90;;;;;;4947342;29;20228;-73
2021/03/03 10:43:13;;;;;;;42.70;23.00;;;5.10;99.90;;;;;;4948577;29;20387;-73
2021/03/03 10:45:40;;;;;;;47.63;23.43;;;5.20;99.90;;;;;;4943029;28;20205;-74
2021/03/03 10:48:07;;;;;;;45.20;23.80;;;5.30;99.90;;;;;;4941777;29;20556;-74
2021/03/03 10:50:36;;;;;;;47.40;23.63;;;5.10;99.90;;;;;;4939633;29;20241;-74
2021/03/03 10:53:04;;;;;;;42.30;24.00;;;5.10;99.90;;;;;;4948129;29;20212;-74
2021/03/03 10:55:35;;;;;;;48.27;24.17;;;5.10;99.90;;;;;;4941763;29;20765;-74
2021/03/03 10:58:08;;;;;;;45.40;24.17;;;5.20;99.90;;;;;;4947378;29;20764;-74
2021/03/03 11:00:53;;;;;;;41.00;22.97;;;5.30;99.90;;;;;;4942724;28;20225;-75
2021/03/03 11:03:20;;;;;;;39.93;21.67;;;5.40;99.90;;;;;;4946470;28;20238;-74
2021/03/03 11:05:50;;;;;;;41.17;22.77;;;5.40;99.90;;;;;;4941449;28;20230;-73
2021/03/03 11:08:17;;;;;;;47.23;23.53;;;5.40;99.90;;;;;;4942779;29;20210;-74
2021/03/03 11:10:43;;;;;;;39.67;22.33;;;5.40;99.90;;;;;;4942592;29;20288;-75
2021/03/03 11:13:11;;;;;;;38.37;22.37;;;5.50;99.90;;;;;;4946263;28;20745;-74
2021/03/03 11:15:40;;;;;;;43.30;23.97;;;5.50;99.90;;;;;;4946219;28;20248;-75
2021/03/03 11:18:07;;;;;;;43.27;23.10;;;5.70;99.90;;;;;;4948712;29;20236;-72
2021/03/03 11:20:33;;;;;;;46.23;23.67;;;5.70;99.90;;;;;;4945410;28;20256;-79
2021/03/03 11:23:00;;;;;;;41.60;23.13;;;5.80;99.90;;;;;;4943473;29;20229;-75
2021/03/03 11:25:26;;;;;;;44.37;23.90;;;5.80;99.90;;;;;;4947842;28;20738;-77
2021/03/03 11:27:53;;;;;;;42.23;24.00;;;5.90;99.90;;;;;;4960958;29;20241;-75
2021/03/03 11:30:20;;;;;;;47.03;23.63;;;5.80;99.90;;;;;;4953285;28;20305;-76
2021/03/03 11:32:47;;;;;;;43.67;24.13;;;5.80;99.90;;;;;;4953958;28;20304;-75
2021/03/03 11:35:14;;;;;;;46.13;23.70;;;5.90;99.90;;;;;;4956879;28;20260;-78
2021/03/03 11:37:40;;;;;;;41.37;23.37;;;5.80;99.90;;;;;;4950003;28;20360;-79
2021/03/03 11:40:07;;;;;;;50.60;24.13;;;5.80;99.90;;;;;;4957375;28;20236;-78
2021/03/03 11:42:34;;;;;;;50.57;26.30;;;5.70;99.90;;;;;;4959282;28;20248;-78
2021/03/03 11:45:00;;;;;;;54.27;27.57;;;5.60;99.90;;;;;;4957980;28;20248;-74
2021/03/03 11:47:28;;;;;;;45.97;24.47;;;5.60;99.90;;;;;;4955226;28;20205;-77
2021/03/03 11:49:57;;;;;;;50.90;27.23;;;5.70;99.90;;;;;;4950782;28;20252;-76
2021/03/03 11:52:24;;;;;;;49.70;27.43;;;5.70;99.90;;;;;;4954124;28;20217;-76
2021/03/03 11:54:51;;;;;;;47.73;25.93;;;5.70;99.90;;;;;;4948913;28;20328;-76
2021/03/03 11:57:18;;;;;;;50.90;27.30;;;5.80;99.90;;;;;;4951440;28;20237;-76
2021/03/03 11:59:45;;;;;;;46.17;24.70;;;5.80;99.90;;;;;;4955979;28;20307;-77
2021/03/03 12:02:13;;;;;;;46.13;25.80;;;6.00;99.90;;;;;;4950729;28;20220;-81
2021/03/03 12:04:40;;;;;;;45.27;26.13;;;6.10;99.90;;;;;;4950397;28;20364;-76
2021/03/03 12:07:07;;;;;;;45.77;26.53;;;6.20;99.90;;;;;;4957524;29;20237;-78
2021/03/03 12:09:33;;;;;;;48.60;25.87;;;6.20;99.90;;;;;;4956110;28;20230;-78
2021/03/03 12:12:00;;;;;;;52.00;27.90;;;6.40;99.90;;;;;;4953301;28;20221;-79
2021/03/03 12:14:27;;;;;;;47.57;26.83;;;6.50;99.90;;;;;;4956913;28;20269;-78
2021/03/03 12:16:53;;;;;;;48.57;27.17;;;6.70;99.90;;;;;;4951452;28;20217;-78
2021/03/03 12:19:20;;;;;;;45.97;26.00;;;7.10;99.90;;;;;;4956985;28;20745;-79
2021/03/03 12:21:48;;;;;;;44.90;25.33;;;7.60;99.90;;;;;;4951486;28;20278;-78
2021/03/03 12:24:15;;;;;;;44.23;26.73;;;7.80;99.90;;;;;;4955125;28;20213;-78
2021/03/03 12:26:41;;;;;;;46.07;27.53;;;7.90;99.90;;;;;;4949845;28;20241;-75
2021/03/03 12:29:08;;;;;;;44.37;26.73;;;7.90;99.90;;;;;;4945432;28;20202;-77
2021/03/03 12:31:35;;;;;;;49.30;26.17;;;7.90;99.90;;;;;;4942497;29;20300;-76
2021/03/03 12:34:02;;;;;;;47.70;27.73;;;7.80;99.90;;;;;;4954958;29;20288;-76
2021/03/03 12:36:29;;;;;;;48.70;28.57;;;7.70;99.90;;;;;;4945163;29;20213;-77
2021/03/03 12:38:56;;;;;;;49.20;28.30;;;7.50;99.90;;;;;;4954005;28;20236;-75
2021/03/03 12:41:22;;;;;;;52.67;28.07;;;7.40;99.90;;;;;;4952577;28;20292;-75
2021/03/03 12:43:49;;;;;;;46.93;27.80;;;7.30;99.90;;;;;;4953084;29;20296;-76
2021/03/03 12:46:16;;;;;;;48.77;28.43;;;7.30;99.90;;;;;;4947542;28;20245;-75